Latest Weather Observations for Warrnambool

IDV60801

Issued at 6:42 pm EST Wednesday 24 April 2019 (issued every 10 minutes, with the page automatically refreshed every 10 minutes)

About weather observations | Map of weather stations | Latest weather observations for VIC | Other Formats
Station Details ID: 090186 Name: WARRNAMBOOL AIRPORT NDB Lat: -38.29 Lon: 142.45 Height: 70.8 m
Data from the previous 72 hours. | See also: Recent months at Warrnambool
Date/Time
EST
Temp
°C
App
Temp
°C
Dew
Point
°C
Rel
Hum
%
Delta-T
°C
Wind Press
QNH
hPa
Press
MSL
hPa
Rain since
9am
mm
Dir  Spd
km/h
Gust
km/h
Spd
kts
Gust
kts
24/06:30pm 12.4 10.1 8.9 79 1.7 WNW 11 13 6 7 1023.5 1023.5 0.0
24/06:00pm 12.9 10.5 8.6 75 2.1 W 11 15 6 8 1023.2 1023.2 0.0
24/05:30pm 14.4 11.0 9.0 70 2.8 W 17 20 9 11 1023.2 1023.2 0.0
24/05:00pm 15.7 11.1 9.8 68 3.1 W 24 30 13 16 1023.2 1023.2 0.0
24/04:30pm 16.2 12.5 10.1 67 3.2 W 20 24 11 13 1023.0 1023.0 0.0
24/04:00pm 16.4 12.7 10.3 67 3.2 W 20 26 11 14 1023.1 1023.1 0.0
24/03:30pm 15.6 11.6 10.4 71 2.7 W 22 28 12 15 1023.3 1023.3 0.0
24/03:20pm 15.0 11.0 10.4 74 2.4 W 22 35 12 19 1023.4 1023.4 0.0
24/03:00pm 14.8 10.5 11.9 83 1.6 WSW 26 35 14 19 1023.7 1023.7 0.0
24/02:39pm 14.7 9.6 11.8 83 1.6 WSW 30 39 16 21 1023.8 1023.8 0.0
24/02:30pm 15.2 10.3 11.4 78 2.0 WSW 28 39 15 21 1023.8 1023.8 0.0
24/02:00pm 15.8 11.9 10.8 72 2.7 WSW 22 33 12 18 1023.8 1023.8 0.0
24/01:30pm 16.7 12.4 10.8 68 3.2 WSW 24 32 13 17 1023.8 1023.8 0.0
24/01:00pm 17.5 12.9 10.9 65 3.5 SW 26 33 14 18 1023.7 1023.7 0.0
24/12:30pm 17.4 13.0 10.3 63 3.8 SW 24 30 13 16 1023.7 1023.7 0.0
24/12:00pm 16.6 12.8 9.8 64 3.6 WSW 20 28 11 15 1023.9 1023.9 0.0
24/11:30am 17.5 15.6 10.6 64 3.7 WNW 11 20 6 11 1023.9 1023.9 0.0
24/11:00am 16.4 14.9 10.5 68 3.1 WNW 9 17 5 9 1024.5 1024.5 0.0
24/10:30am 16.1 15.4 11.3 73 2.6 WNW 6 11 3 6 1025.0 1025.0 0.0
24/10:00am 15.1 14.1 11.1 77 2.1 W 7 11 4 6 1025.3 1025.3 0.0
24/09:30am 14.5 14.3 11.7 83 1.5 NNW 4 9 2 5 1025.2 1025.2 0.0
24/09:00am 12.6 12.8 11.7 94 0.5 N 2 7 1 4 1025.3 1025.3 0.0
24/08:30am 11.1 10.2 10.5 96 0.3 N 6 7 3 4 1025.4 1025.4 0.0
24/08:00am 9.1 7.4 8.5 96 0.3 NNW 7 7 4 4 1025.2 1025.2 0.0
24/07:30am 7.8 5.1 7.2 96 0.3 NNE 11 13 6 7 1024.7 1024.7 0.0
24/07:00am 8.7 7.9 8.1 96 0.3 NNE 2 9 1 5 1024.8 1024.8 0.0
24/06:30am 8.3 7.4 7.7 96 0.3 NNE 2 7 1 4 1024.9 1024.9 0.0
24/06:00am 6.7 5.8 6.0 95 0.3 CALM 0 0 0 0 1025.1 1025.1 0.0
24/05:30am 7.2 5.6 6.5 95 0.3 ENE 4 7 2 4 1024.9 1024.9 0.0
24/05:00am 8.3 7.8 7.7 96 0.3 CALM 0 0 0 0 1025.1 1025.1 0.0
24/04:30am 8.8 7.2 8.2 96 0.3 E 6 7 3 4 1025.1 1025.1 0.0
24/04:00am 8.4 7.9 8.0 97 0.2 CALM 0 0 0 0 1025.0 1025.0 0.0
24/03:30am 7.9 7.3 7.3 96 0.3 CALM 0 0 0 0 1025.1 1025.1 0.0
24/03:00am 7.1 6.3 6.5 96 0.3 CALM 0 0 0 0 1025.3 1025.3 0.0
24/02:30am 6.5 4.4 5.9 96 0.3 ENE 6 6 3 3 1025.5 1025.5 0.0
24/02:00am 5.1 2.5 4.4 95 0.3 NE 7 7 4 4 1025.8 1025.8 0.0
24/01:30am 5.4 2.9 4.7 95 0.3 ENE 7 9 4 5 1026.1 1026.1 0.0
24/01:00am 6.7 4.6 6.0 95 0.3 ESE 6 6 3 3 1026.2 1026.2 0.0
24/12:30am 5.8 3.5 4.9 94 0.4 E 6 7 3 4 1026.4 1026.4 0.0
24/12:00am 6.4 4.2 5.5 94 0.4 E 6 6 3 3 1026.5 1026.5 0.0
 
Date/Time
EST
Temp
°C
App
Temp
°C
Dew
Point
°C
Rel
Hum
%
Delta-T
°C
Wind Press
QNH
hPa
Press
MSL
hPa
Rain since
9am
mm
Dir  Spd
km/h
Gust
km/h
Spd
kts
Gust
kts
23/11:30pm 7.1 5.1 6.2 94 0.4 ENE 6 7 3 4 1027.0 1027.0 0.0
23/11:00pm 7.0 6.1 5.9 93 0.5 CALM 0 0 0 0 1027.2 1027.2 0.0
23/10:30pm 7.2 5.5 6.0 92 0.5 NNE 4 6 2 3 1027.7 1027.6 0.0
23/10:00pm 8.3 7.6 6.8 90 0.7 CALM 0 0 0 0 1028.0 1027.9 0.0
23/09:30pm 9.4 7.7 7.7 89 0.8 NE 6 7 3 4 1028.0 1027.9 0.0
23/09:00pm 10.4 8.7 8.5 88 0.9 E 7 9 4 5 1027.8 1027.7 0.0
23/08:30pm 9.6 7.0 7.7 88 0.9 SSE 11 15 6 8 1027.7 1027.6 0.0
23/08:00pm 9.5 6.0 7.1 85 1.1 S 15 15 8 8 1027.7 1027.6 0.0
23/07:30pm 12.2 10.6 8.7 79 1.7 SSE 7 9 4 5 1027.9 1027.8 0.0
23/07:00pm 12.4 10.9 9.1 80 1.7 SSE 7 11 4 6 1028.1 1028.0 0.0
23/06:30pm 11.7 9.3 8.6 81 1.5 SSE 11 13 6 7 1028.0 1027.9 0.0
23/06:00pm 11.6 8.6 7.5 76 2.0 SSE 13 15 7 8 1027.7 1027.6 0.0
23/05:30pm 13.7 11.2 8.3 70 2.7 SSE 11 13 6 7 1027.6 1027.5 0.0
23/05:00pm 14.4 11.2 8.4 67 3.0 SSE 15 20 8 11 1027.6 1027.5 0.0
23/04:30pm 14.8 11.2 8.3 65 3.3 S 17 22 9 12 1027.6 1027.5 0.0
23/04:00pm 15.3 11.2 7.8 61 3.7 SSE 19 24 10 13 1027.3 1027.3 0.0
23/03:30pm 15.5 11.2 8.0 61 3.8 S 20 24 11 13 1027.5 1027.4 0.0
23/03:00pm 16.2 12.2 8.4 60 4.0 SSW 19 26 10 14 1027.5 1027.4 0.0
23/02:30pm 16.1 13.2 8.3 60 4.0 SSW 13 20 7 11 1027.5 1027.4 0.0
23/02:00pm 16.6 12.7 8.6 59 4.1 SSW 19 24 10 13 1027.6 1027.5 0.0
23/01:30pm 16.6 13.3 8.1 57 4.3 S 15 22 8 12 1027.9 1027.8 0.0
23/01:00pm 16.8 14.1 8.8 59 4.1 S 13 32 7 17 1028.1 1028.0 0.0
23/12:30pm 16.2 13.1 8.7 61 3.8 S 15 24 8 13 1028.4 1028.3 0.0
23/12:00pm 16.0 12.4 8.2 60 3.9 SSW 17 22 9 12 1028.8 1028.7 0.0
23/11:30am 16.0 13.6 8.5 61 3.8 S 11 20 6 11 1029.1 1029.0 0.0
23/11:00am 15.5 13.1 8.5 63 3.5 SE 11 19 6 10 1029.1 1029.0 0.0
23/10:30am 15.1 13.0 8.3 64 3.4 SE 9 15 5 8 1029.2 1029.1 0.0
23/10:00am 14.7 12.7 8.6 67 3.1 SE 9 13 5 7 1029.3 1029.2 0.0
23/09:30am 13.7 12.5 9.6 76 2.1 ESE 6 7 3 4 1029.3 1029.2 0.0
23/09:00am 11.9 11.7 10.6 92 0.7 NNE 2 6 1 3 1029.3 1029.2 0.0
23/08:30am 8.4 6.6 8.0 97 0.2 N 7 9 4 5 1029.2 1029.1 0.0
23/08:00am 5.7 3.5 5.3 97 0.2 NNE 6 7 3 4 1029.0 1028.9 0.0
23/07:30am 3.0 0.1 2.6 97 0.2 N 7 7 4 4 1028.8 1028.7 0.0
23/07:00am 2.6 -0.2 2.2 97 0.2 N 6 7 3 4 1028.5 1028.4 0.0
23/06:30am 2.6 -0.7 2.2 97 0.2 N 9 11 5 6 1028.1 1028.0 0.0
23/06:00am 1.6 -2.3 1.0 96 0.2 N 11 13 6 7 1028.0 1027.9 0.0
23/05:30am 1.7 -1.4 1.1 96 0.2 N 7 9 4 5 1027.9 1027.8 0.0
23/05:00am 1.5 -1.7 0.9 96 0.2 N 7 9 4 5 1027.8 1027.7 0.0
23/04:30am 2.2 -0.7 1.5 95 0.3 NNW 6 7 3 4 1027.7 1027.6 0.0
23/04:00am 2.4 -0.6 1.7 95 0.3 NNW 7 9 4 5 1027.8 1027.7 0.0
23/03:30am 2.6 -0.4 1.9 95 0.3 NNW 7 9 4 5 1028.0 1027.9 0.0
23/03:00am 2.6 -0.4 1.7 94 0.3 NNW 7 9 4 5 1028.1 1028.0 0.0
23/02:30am 4.0 0.8 3.3 95 0.3 NNW 9 9 5 5 1028.2 1028.1 0.0
23/02:00am 3.8 0.6 2.9 94 0.4 N 9 11 5 6 1028.4 1028.3 0.0
23/01:30am 4.2 0.7 3.3 94 0.4 N 11 13 6 7 1028.4 1028.3 0.0
23/01:00am 3.7 0.4 2.7 93 0.4 N 9 11 5 6 1028.5 1028.4 0.0
23/12:30am 4.1 0.9 2.9 92 0.5 N 9 11 5 6 1028.4 1028.3 0.0
23/12:00am 4.3 0.7 3.0 91 0.5 N 11 11 6 6 1028.4 1028.3 0.0
 
Date/Time
EST
Temp
°C
App
Temp
°C
Dew
Point
°C
Rel
Hum
%
Delta-T
°C
Wind Press
QNH
hPa
Press
MSL
hPa
Rain since
9am
mm
Dir  Spd
km/h
Gust
km/h
Spd
kts
Gust
kts
22/11:30pm 4.4 1.5 2.8 89 0.7 NNE 7 11 4 6 1028.4 1028.3 0.0
22/11:00pm 5.5 2.9 3.3 86 0.9 NE 6 7 3 4 1028.4 1028.3 0.0
22/10:30pm 6.8 5.5 4.3 84 1.1 CALM 0 0 0 0 1028.5 1028.4 0.0
22/10:00pm 7.2 4.8 4.2 81 1.3 SE 6 7 3 4 1028.8 1028.7 0.0
22/09:30pm 8.0 5.4 4.4 78 1.6 SSW 7 9 4 5 1028.9 1028.8 0.0
22/09:00pm 9.1 5.5 5.1 76 1.8 SW 13 15 7 8 1028.7 1028.6 0.0
22/08:30pm 9.6 6.0 5.2 74 2.0 SSW 13 15 7 8 1028.7 1028.6 0.0
22/08:00pm 10.4 6.9 5.6 72 2.2 SSW 13 15 7 8 1028.7 1028.6 0.0
22/07:30pm 12.7 9.5 6.7 67 2.9 SSW 13 15 7 8 1028.7 1028.6 0.0
22/07:00pm 13.3 10.6 7.3 67 2.9 SSW 11 15 6 8 1028.5 1028.4 0.0
22/06:30pm 13.2 10.6 7.6 69 2.8 SW 11 13 6 7 1028.2 1028.1 0.0
22/06:00pm 13.7 11.0 7.2 65 3.2 SSW 11 15 6 8 1027.5 1027.4 0.0
22/05:30pm 14.4 11.1 7.9 65 3.2 S 15 20 8 11 1026.9 1026.9 0.0
22/05:00pm 14.4 10.8 8.4 67 3.0 SSW 17 19 9 10 1026.5 1026.5 0.0
22/04:30pm 15.4 11.2 8.2 62 3.6 SW 20 28 11 15 1026.6 1026.6 0.0
22/04:00pm 15.3 11.6 8.1 62 3.6 SSW 17 20 9 11 1026.6 1026.6 0.0
22/03:30pm 15.5 11.5 8.3 62 3.6 S 19 24 10 13 1026.7 1026.7 0.0
22/03:00pm 15.5 11.3 7.5 59 4.0 SSW 19 30 10 16 1026.3 1026.3 0.0
22/02:30pm 15.8 11.2 6.3 53 4.6 SSW 20 28 11 15 1026.2 1026.2 0.0
22/02:00pm 16.2 11.7 6.1 51 4.9 SSW 19 26 10 14 1026.4 1026.4 0.0
22/01:30pm 16.3 12.4 5.3 48 5.3 SW 15 24 8 13 1026.2 1026.2 0.0
22/01:00pm 16.1 12.3 5.7 50 5.0 SW 15 24 8 13 1026.4 1026.4 0.0
22/12:30pm 16.1 12.0 6.3 52 4.8 SSW 17 32 9 17 1026.5 1026.5 0.0
22/12:00pm 15.4 11.1 6.9 57 4.2 SSW 19 26 10 14 1027.0 1027.0 0.0
22/11:30am 14.8 10.3 6.9 59 3.9 SW 20 28 11 15 1027.2 1027.2 0.0
22/11:00am 15.5 11.6 7.3 58 4.0 WSW 17 26 9 14 1026.8 1026.8 0.0
22/10:30am 15.0 11.4 8.5 65 3.3 WSW 17 26 9 14 1026.7 1026.7 0.0
22/10:00am 15.0 11.9 10.2 73 2.5 W 17 20 9 11 1026.5 1026.5 0.0
22/09:30am 13.8 12.4 10.8 82 1.6 WNW 9 11 5 6 1026.4 1026.4 0.0
22/09:00am 11.8 9.1 10.5 92 0.7 NW 15 19 8 10 1026.5 1026.5 0.0
22/08:30am 9.8 7.6 9.5 98 0.1 NNW 11 13 6 7 1026.4 1026.4 0.0
22/08:00am 7.2 4.4 6.9 98 0.1 N 11 13 6 7 1026.0 1026.0 0.0
22/07:30am 4.4 0.6 4.0 97 0.2 NNW 13 15 7 8 1025.5 1025.5 0.0
22/07:00am 3.8 -0.1 3.2 96 0.2 NNW 13 15 7 8 1025.0 1025.0 0.0
22/06:30am 4.7 0.6 4.1 96 0.3 N 15 15 8 8 1024.8 1024.8 0.0
22/06:00am 4.7 0.6 4.1 96 0.3 N 15 17 8 9 1024.7 1024.7 0.0
22/05:30am 4.8 1.4 4.2 96 0.3 N 11 13 6 7 1024.2 1024.2 0.0
22/05:00am 4.9 1.5 4.0 94 0.4 NNW 11 11 6 6 1023.8 1023.8 0.0
22/04:30am 5.7 2.4 4.8 94 0.4 N 11 13 6 7 1023.8 1023.8 0.0
22/04:00am 8.5 5.5 7.9 96 0.3 NW 13 15 7 8 1023.6 1023.6 0.0
22/03:30am 6.2 3.1 5.5 95 0.3 NNW 11 13 6 7 1023.4 1023.4 0.0
22/03:00am 6.3 2.8 5.6 95 0.3 NW 13 15 7 8 1023.4 1023.4 0.0
22/02:30am 6.6 3.6 5.9 95 0.3 NW 11 13 6 7 1023.7 1023.7 0.0
22/02:00am 5.7 2.4 4.8 94 0.4 NNW 11 13 6 7 1024.1 1024.1 0.0
22/01:30am 6.0 2.8 5.0 93 0.4 NNW 11 13 6 7 1023.9 1023.9 0.0
22/01:00am 6.8 4.1 5.7 93 0.5 NNW 9 11 5 6 1023.8 1023.8 0.0
22/12:30am 6.7 3.6 5.7 93 0.4 NW 11 13 6 7 1023.5 1023.5 0.0
22/12:00am 7.4 4.4 6.0 91 0.6 NNW 11 13 6 7 1023.3 1023.3 0.0
 
Date/Time
EST
Temp
°C
App
Temp
°C
Dew
Point
°C
Rel
Hum
%
Delta-T
°C
Wind Press
QNH
hPa
Press
MSL
hPa
Rain since
9am
mm
Dir  Spd
km/h
Gust
km/h
Spd
kts
Gust
kts
21/11:30pm 9.1 5.7 7.7 91 0.7 NW 15 17 8 9 1023.5 1023.5 0.0
21/11:00pm 9.5 6.6 8.3 92 0.6 NW 13 17 7 9 1023.6 1023.6 0.0
21/10:30pm 9.5 6.6 8.3 92 0.6 NW 13 15 7 8 1023.6 1023.6 0.0
21/10:00pm 10.0 7.5 8.3 89 0.8 WNW 11 15 6 8 1023.3 1023.3 0.0
21/09:30pm 10.4 8.4 8.5 88 0.9 NW 9 13 5 7 1023.1 1023.1 0.0
21/09:00pm 10.7 7.8 8.3 85 1.2 WNW 13 15 7 8 1022.8 1022.8 0.0
21/08:30pm 12.0 9.0 9.2 83 1.4 W 15 19 8 10 1022.4 1022.4 0.0
21/08:00pm 13.3 10.1 10.1 81 1.7 WSW 17 22 9 12 1021.9 1021.9 0.0
21/07:30pm 13.4 9.7 10.0 80 1.8 WSW 20 28 11 15 1021.4 1021.4 0.0
21/07:00pm 13.4 8.4 9.6 78 1.9 WSW 26 37 14 20 1021.0 1021.0 0.0

Other formats

Comma delimited format used in spreadsheet applications
http://www.bom.gov.au/fwo/IDV60801/IDV60801.94837.axf

JavaScript Object Notation format (JSON) in row-major order
http://www.bom.gov.au/fwo/IDV60801/IDV60801.94837.json

Data quality

Most of these data are generated automatically and are frequently updated. Quality checks on data are not normally performed. It is possible for incorrect values to appear. Refer to information at About Latest Weather Observations and please check the disclaimer before using these data.